Observation data for Seymour on 08/14/2019      Previous  Date  Next       Current Mesonet Observations  Soil Data  Daily Summary Page  Observations in Plain Language
KSE1 140500Z 04006KT 28/20 A3001 RMK A01 T02790197  RH  065%=      5-min Rain = 0
KSE1 140505Z 05005KT 28/20 A3001 RMK A01 T02780197  RH  065%=      5-min Rain = 0
KSE1 140510Z 03006KT 28/20 A3001 RMK A01 T02750197  RH  066%=      5-min Rain = 0
KSE1 140515Z 03006KT 27/20 A3001 RMK A01 T02740197  RH  066%=      5-min Rain = 0
KSE1 140520Z 03007KT 27/20 A3001 RMK A01 T02720197  RH  067%=      5-min Rain = 0
KSE1 140525Z 03007KT 27/20 A3001 RMK A01 T02720197  RH  067%=      5-min Rain = 0
KSE1 140530Z 03007KT 27/20 A3001 RMK A01 T02710197  RH  068%=      5-min Rain = 0
KSE1 140535Z 03007KT 27/20 A3001 RMK A01 T02700196  RH  068%=      5-min Rain = 0
KSE1 140540Z 03006KT 27/20 A3001 RMK A01 T02690195  RH  068%=      5-min Rain = 0
KSE1 140545Z 02007KT 27/20 A3002 RMK A01 T02680195  RH  068%=      5-min Rain = 0
KSE1 140550Z 02007KT 27/20 A3002 RMK A01 T02680196  RH  068%=      5-min Rain = 0
KSE1 140555Z 03007KT 27/20 A3002 RMK A01 T02680196  RH  068%=      5-min Rain = 0
KSE1 140600Z 02007KT 27/20 A3002 RMK A01 T02670196  RH  069%=      5-min Rain = 0
KSE1 140605Z 02008KT 27/20 A3002 RMK A01 T02680196  RH  069%=      5-min Rain = 0
KSE1 140610Z 02008KT 27/20 A3002 RMK A01 T02680196  RH  069%=      5-min Rain = 0
KSE1 140615Z 02009KT 27/20 A3002 RMK A01 T02690196  RH  068%=      5-min Rain = 0
KSE1 140620Z 03009KT 27/20 A3002 RMK A01 T02700196  RH  068%=      5-min Rain = 0
KSE1 140625Z 03008KT 27/20 A3002 RMK A01 T02690196  RH  068%=      5-min Rain = 0
KSE1 140630Z 02008KT 27/20 A3002 RMK A01 T02690196  RH  068%=      5-min Rain = 0
KSE1 140635Z 02008KT 27/20 A3002 RMK A01 T02690196  RH  068%=      5-min Rain = 0
KSE1 140640Z 03009KT 27/20 A3002 RMK A01 T02680196  RH  068%=      5-min Rain = 0
KSE1 140645Z 03008KT 27/20 A3002 RMK A01 T02660196  RH  069%=      5-min Rain = 0
KSE1 140650Z 03007KT 27/20 A3001 RMK A01 T02650196  RH  070%=      5-min Rain = 0
KSE1 140655Z 04006KT 26/20 A3001 RMK A01 T02640196  RH  070%=      5-min Rain = 0
KSE1 140700Z 04007KT 26/20 A3001 RMK A01 T02640196  RH  070%=      5-min Rain = 0
KSE1 140705Z 03007KT 26/20 A3001 RMK A01 T02630196  RH  070%=      5-min Rain = 0
KSE1 140710Z 02007KT 26/20 A3002 RMK A01 T02620196  RH  071%=      5-min Rain = 0
KSE1 140715Z 02007KT 26/20 A3002 RMK A01 T02620196  RH  071%=      5-min Rain = 0
KSE1 140720Z 02006KT 26/20 A3002 RMK A01 T02610196  RH  071%=      5-min Rain = 0
KSE1 140725Z 01008KT 26/20 A3002 RMK A01 T02600196  RH  072%=      5-min Rain = 0
KSE1 140730Z 01008KT 26/20 A3002 RMK A01 T02610197  RH  072%=      5-min Rain = 0
KSE1 140735Z 01009KT 26/20 A3002 RMK A01 T02630197  RH  071%=      5-min Rain = 0
KSE1 140740Z 02009KT 26/20 A3002 RMK A01 T02640198  RH  071%=      5-min Rain = 0
KSE1 140745Z 02009KT 27/20 A3002 RMK A01 T02650198  RH  071%=      5-min Rain = 0
KSE1 140750Z 02010KT 26/20 A3002 RMK A01 T02640199  RH  072%=      5-min Rain = 0
KSE1 140755Z 02012KT 27/20 A3003 RMK A01 T02650201  RH  072%=      5-min Rain = 0
KSE1 140800Z 02011KT 27/20 A3003 RMK A01 T02660203  RH  073%=      5-min Rain = 0
KSE1 140805Z 02013G18KT 27/20 A3003 RMK A01 T02660202  RH  072%=      5-min Rain = 0
KSE1 140810Z 02011KT 27/20 A3003 RMK A01 T02660201  RH  071%=      5-min Rain = 0
KSE1 140815Z 02013KT 27/20 A3003 RMK A01 T02660198  RH  070%=      5-min Rain = 0
KSE1 140820Z 02014KT 27/20 A3004 RMK A01 T02680196  RH  068%=      5-min Rain = 0
KSE1 140825Z 02013G18KT 27/20 A3003 RMK A01 T02670195  RH  068%=      5-min Rain = 0
KSE1 140830Z 02016KT 26/19 A3003 RMK A01 T02630193  RH  069%=      5-min Rain = 0
KSE1 140835Z 02018G24KT 26/19 A3003 RMK A01 T02630191  RH  068%=      5-min Rain = 0
KSE1 140840Z 02017G22KT 26/19 A3003 RMK A01 T02600194  RH  071%=      5-min Rain = 0
KSE1 140845Z 02015KT 26/20 A3003 RMK A01 T02550199  RH  075%=      5-min Rain = 0
KSE1 140850Z 02015KT 25/20 A3003 RMK A01 T02480199  RH  079%=      5-min Rain = 0
KSE1 140855Z 02014G19KT 25/20 A3003 RMK A01 T02460200  RH  080%=      5-min Rain = 0
KSE1 140900Z 03012G17KT 24/20 A3003 RMK A01 T02440200  RH  081%=      5-min Rain = 0
KSE1 140905Z 04011KT 24/20 A3002 RMK A01 T02440198  RH  080%=      5-min Rain = 0
KSE1 140910Z 05010G16KT 25/20 A3003 RMK A01 T02450196  RH  079%=      5-min Rain = 0
KSE1 140915Z 05012G17KT 25/19 A3003 RMK A01 T02450194  RH  078%=      5-min Rain = 0
KSE1 140920Z 04011KT 24/20 A3003 RMK A01 T02420195  RH  079%=      5-min Rain = 0
KSE1 140925Z 05009G14KT 24/20 A3003 RMK A01 T02400197  RH  081%=      5-min Rain = 0
KSE1 140930Z 06010G16KT 24/20 A3003 RMK A01 T02390199  RH  083%=      5-min Rain = 0
KSE1 140935Z 06009G14KT 24/20 A3003 RMK A01 T02390202  RH  085%=      5-min Rain = 0
KSE1 140940Z 06009G14KT 24/21 A3003 RMK A01 T02390205  RH  086%=      5-min Rain = 0
KSE1 140945Z 07008KT 24/21 A3003 RMK A01 T02390206  RH  087%=      5-min Rain = 0
KSE1 140950Z 06009G15KT 24/21 A3003 RMK A01 T02400206  RH  086%=      5-min Rain = 0
KSE1 140955Z 05009KT 24/21 A3003 RMK A01 T02400206  RH  086%=      5-min Rain = 0
KSE1 141000Z 05008KT 24/21 A3003 RMK A01 T02400206  RH  086%=      5-min Rain = 0
KSE1 141005Z 05006KT 24/21 A3003 RMK A01 T02390206  RH  087%=      5-min Rain = 0
KSE1 141010Z 06006KT 24/21 A3003 RMK A01 T02390206  RH  087%=      5-min Rain = 0
KSE1 141015Z 06004KT 24/21 A3002 RMK A01 T02380206  RH  087%=      5-min Rain = 0
KSE1 141020Z 07003KT 24/21 A3002 RMK A01 T02380206  RH  088%=      5-min Rain = 0
KSE1 141025Z 04005KT 24/21 A3003 RMK A01 T02370206  RH  088%=      5-min Rain = 0
KSE1 141030Z 01007KT 24/21 A3003 RMK A01 T02370206  RH  088%=      5-min Rain = 0
KSE1 141035Z 01006KT 24/21 A3004 RMK A01 T02360206  RH  089%=      5-min Rain = 0
KSE1 141040Z 01007KT 23/21 A3004 RMK A01 T02340207  RH  090%=      5-min Rain = 0
KSE1 141045Z 00007KT 23/21 A3004 RMK A01 T02330208  RH  091%=      5-min Rain = 0
KSE1 141050Z 36011KT 23/21 A3005 RMK A01 T02330209  RH  092%=      5-min Rain = 0
KSE1 141055Z 01009KT 23/21 A3005 RMK A01 T02320210  RH  093%=      5-min Rain = 0
KSE1 141100Z 02010KT 23/21 A3005 RMK A01 T02320211  RH  093%=      5-min Rain = 0
KSE1 141105Z 03010KT 23/21 A3005 RMK A01 T02330212  RH  093%=      5-min Rain = 0
KSE1 141110Z 03011KT 23/21 A3005 RMK A01 T02340212  RH  093%=      5-min Rain = 0
KSE1 141115Z 04009KT 23/21 A3005 RMK A01 T02340212  RH  093%=      5-min Rain = 0
KSE1 141120Z 04010KT 23/21 A3005 RMK A01 T02340212  RH  093%=      5-min Rain = 0
KSE1 141125Z 03009KT 23/21 A3005 RMK A01 T02330212  RH  093%=      5-min Rain = 0
KSE1 141130Z 03008KT 23/21 A3006 RMK A01 T02330212  RH  094%=      5-min Rain = 0
KSE1 141135Z 03007KT 23/21 A3006 RMK A01 T02320212  RH  094%=      5-min Rain = 0
KSE1 141140Z 04007KT 23/21 A3006 RMK A01 T02320212  RH  094%=      5-min Rain = 0
KSE1 141145Z 06006KT 23/21 A3006 RMK A01 T02310211  RH  094%=      5-min Rain = 0
KSE1 141150Z 06005KT 23/21 A3005 RMK A01 T02310211  RH  094%=      5-min Rain = 0
KSE1 141155Z 07004KT 23/21 A3005 RMK A01 T02300211  RH  094%=      5-min Rain = 0
KSE1 141200Z 07003KT 23/21 A3005 RMK A01 T02300211  RH  095%=      5-min Rain = 0
KSE1 141205Z 05004KT 23/21 A3006 RMK A01 T02290210  RH  095%=      5-min Rain = 0
KSE1 141210Z 03005KT 23/21 A3006 RMK A01 T02300211  RH  095%=      5-min Rain = 0
KSE1 141215Z 02005KT 23/21 A3006 RMK A01 T02300212  RH  095%=      5-min Rain = 0
KSE1 141220Z 01006KT 23/21 A3006 RMK A01 T02310212  RH  095%=      5-min Rain = 0
KSE1 141225Z 00006KT 23/21 A3007 RMK A01 T02310212  RH  094%=      5-min Rain = 0
KSE1 141230Z 01006KT 23/21 A3007 RMK A01 T02320212  RH  094%=      5-min Rain = 0
KSE1 141235Z 01006KT 23/21 A3007 RMK A01 T02320211  RH  093%=      5-min Rain = 0
KSE1 141240Z 01007KT 23/21 A3007 RMK A01 T02330210  RH  093%=      5-min Rain = 0
KSE1 141245Z 01008KT 23/21 A3008 RMK A01 T02340211  RH  092%=      5-min Rain = 0
KSE1 141250Z 01007KT 24/21 A3008 RMK A01 T02350211  RH  092%=      5-min Rain = 0
KSE1 141255Z 01008KT 24/21 A3008 RMK A01 T02360211  RH  091%=      5-min Rain = 0
KSE1 141300Z 01008KT 24/21 A3009 RMK A01 T02360211  RH  091%=      5-min Rain = 0
KSE1 141305Z 01007KT 24/21 A3009 RMK A01 T02380211  RH  090%=      5-min Rain = 0
KSE1 141310Z 01008KT 24/21 A3009 RMK A01 T02390211  RH  089%=      5-min Rain = 0
KSE1 141315Z 02008KT 24/21 A3009 RMK A01 T02410211  RH  089%=      5-min Rain = 0
KSE1 141320Z 02008KT 24/21 A301 RMK A01 T02420212  RH  089%=      5-min Rain = 0
KSE1 141325Z 01007KT 24/21 A301 RMK A01 T02420213  RH  089%=      5-min Rain = 0
KSE1 141330Z 01007KT 24/21 A3009 RMK A01 T02440213  RH  088%=      5-min Rain = 0
KSE1 141335Z 01008KT 24/21 A3009 RMK A01 T02440212  RH  087%=      5-min Rain = 0
KSE1 141340Z 02008KT 25/21 A301 RMK A01 T02450211  RH  086%=      5-min Rain = 0
KSE1 141345Z 01008KT 25/21 A301 RMK A01 T02460212  RH  086%=      5-min Rain = 0
KSE1 141350Z 01010KT 25/21 A301 RMK A01 T02470210  RH  085%=      5-min Rain = 0
KSE1 141355Z 02008KT 25/21 A301 RMK A01 T02490212  RH  085%=      5-min Rain = 0
KSE1 141400Z 01009KT 25/21 A301 RMK A01 T02500212  RH  084%=      5-min Rain = 0
KSE1 141405Z 02009KT 25/21 A301 RMK A01 T02530211  RH  083%=      5-min Rain = 0
KSE1 141410Z 02008KT 25/21 A301 RMK A01 T02510209  RH  082%=      5-min Rain = 0
KSE1 141415Z 02008KT 25/21 A301 RMK A01 T02530210  RH  082%=      5-min Rain = 0
KSE1 141420Z 35009KT 25/21 A301 RMK A01 T02540210  RH  081%=      5-min Rain = 0
KSE1 141425Z 35007KT 26/21 A301 RMK A01 T02550210  RH  081%=      5-min Rain = 0
KSE1 141430Z 00007KT 26/21 A301 RMK A01 T02580210  RH  079%=      5-min Rain = 0
KSE1 141435Z 00006G11KT 26/21 A301 RMK A01 T02590209  RH  078%=      5-min Rain = 0
KSE1 141440Z 01005KT 26/21 A301 RMK A01 T02620209  RH  077%=      5-min Rain = 0
KSE1 141445Z 35007KT 27/21 A301 RMK A01 T02690210  RH  074%=      5-min Rain = 0
KSE1 141450Z 02006KT 27/21 A301 RMK A01 T02670207  RH  074%=      5-min Rain = 0
KSE1 141455Z 01004KT 27/21 A3011 RMK A01 T02650207  RH  075%=      5-min Rain = 0
KSE1 141500Z 01005KT 27/21 A3011 RMK A01 T02730208  RH  072%=      5-min Rain = 0
KSE1 141505Z 03005KT 27/21 A3011 RMK A01 T02720207  RH  072%=      5-min Rain = 0
KSE1 141510Z 02005KT 27/21 A3011 RMK A01 T02710207  RH  072%=      5-min Rain = 0
KSE1 141515Z 04004KT 27/21 A3011 RMK A01 T02730206  RH  071%=      5-min Rain = 0
KSE1 141520Z 04003KT 28/21 A3011 RMK A01 T02770208  RH  070%=      5-min Rain = 0
KSE1 141525Z 04006KT 28/21 A3011 RMK A01 T02780208  RH  069%=      5-min Rain = 0
KSE1 141530Z 02007KT 28/21 A3012 RMK A01 T02830207  RH  067%=      5-min Rain = 0
KSE1 141535Z 02005G11KT 28/21 A3012 RMK A01 T02800207  RH  069%=      5-min Rain = 0
KSE1 141540Z 01006G11KT 29/21 A3012 RMK A01 T02860207  RH  067%=      5-min Rain = 0
KSE1 141545Z 34007KT 29/21 A3012 RMK A01 T02850207  RH  067%=      5-min Rain = 0
KSE1 141550Z 34007KT 29/21 A3012 RMK A01 T02870207  RH  066%=      5-min Rain = 0
KSE1 141555Z 36006KT 29/21 A3012 RMK A01 T02870205  RH  065%=      5-min Rain = 0
KSE1 141600Z 02007KT 29/21 A3012 RMK A01 T02910205  RH  063%=      5-min Rain = 0
KSE1 141605Z 02007G12KT 29/20 A3012 RMK A01 T02900204  RH  063%=      5-min Rain = 0
KSE1 141610Z 36007KT 29/21 A3011 RMK A01 T02930206  RH  063%=      5-min Rain = 0
KSE1 141615Z 02006KT 29/21 A3011 RMK A01 T02930205  RH  063%=      5-min Rain = 0
KSE1 141620Z 00008KT 30/21 A3011 RMK A01 T02950207  RH  063%=      5-min Rain = 0
KSE1 141625Z 02008G13KT 30/21 A3011 RMK A01 T02980206  RH  061%=      5-min Rain = 0
KSE1 141630Z 02008KT 30/20 A3011 RMK A01 T02970204  RH  061%=      5-min Rain = 0
KSE1 141635Z 02008KT 30/21 A3011 RMK A01 T02980205  RH  061%=      5-min Rain = 0
KSE1 141640Z 00010G15KT 30/21 A3011 RMK A01 T03010205  RH  060%=      5-min Rain = 0
KSE1 141645Z 01010KT 30/21 A3011 RMK A01 T03040205  RH  059%=      5-min Rain = 0
KSE1 141650Z 00009KT 31/21 A3011 RMK A01 T03080206  RH  058%=      5-min Rain = 0
KSE1 141655Z 36010G17KT 31/21 A3011 RMK A01 T03070206  RH  058%=      5-min Rain = 0
KSE1 141700Z 35010KT 31/21 A301 RMK A01 T03080207  RH  058%=      5-min Rain = 0
KSE1 141705Z 35009G15KT 31/21 A301 RMK A01 T03100208  RH  058%=      5-min Rain = 0
KSE1 141710Z 35011KT 31/21 A301 RMK A01 T03110209  RH  058%=      5-min Rain = 0
KSE1 141715Z 36009G15KT 31/21 A301 RMK A01 T03090208  RH  058%=      5-min Rain = 0
KSE1 141720Z 33010KT 31/21 A301 RMK A01 T03130209  RH  058%=      5-min Rain = 0
KSE1 141725Z 35009G15KT 32/21 A301 RMK A01 T03180208  RH  056%=      5-min Rain = 0
KSE1 141730Z 35011KT 32/21 A301 RMK A01 T03180205  RH  054%=      5-min Rain = 0
KSE1 141735Z 00009KT 32/21 A3009 RMK A01 T03150206  RH  056%=      5-min Rain = 0
KSE1 141740Z 02008KT 32/21 A3009 RMK A01 T03190208  RH  055%=      5-min Rain = 0
KSE1 141745Z 01010KT 32/21 A3009 RMK A01 T03190205  RH  054%=      5-min Rain = 0
KSE1 141750Z 36009G21KT 32/20 A3008 RMK A01 T03230202  RH  052%=      5-min Rain = 0
KSE1 141755Z 02009G14KT 32/20 A3008 RMK A01 T03230202  RH  052%=      5-min Rain = 0
KSE1 141800Z 03009G15KT 33/20 A3008 RMK A01 T03260202  RH  051%=      5-min Rain = 0
KSE1 141805Z 02009KT 33/20 A3008 RMK A01 T03250200  RH  051%=      5-min Rain = 0
KSE1 141810Z 02009KT 33/20 A3007 RMK A01 T03270200  RH  050%=      5-min Rain = 0
KSE1 141815Z 01008KT 33/20 A3007 RMK A01 T03290199  RH  049%=      5-min Rain = 0
KSE1 141820Z 04007KT 33/20 A3007 RMK A01 T03300200  RH  049%=      5-min Rain = 0
KSE1 141825Z 02008G15KT 33/20 A3007 RMK A01 T03290201  RH  050%=      5-min Rain = 0
KSE1 141830Z 03011KT 33/20 A3006 RMK A01 T03340198  RH  047%=      5-min Rain = 0
KSE1 141835Z 03010KT 33/20 A3006 RMK A01 T03320198  RH  048%=      5-min Rain = 0
KSE1 141840Z 01010G15KT 33/20 A3006 RMK A01 T03320199  RH  048%=      5-min Rain = 0
KSE1 141845Z 05007KT 34/20 A3006 RMK A01 T03360200  RH  048%=      5-min Rain = 0
KSE1 141850Z 05008G14KT 33/20 A3006 RMK A01 T03330199  RH  048%=      5-min Rain = 0
KSE1 141855Z 01007G13KT 34/20 A3005 RMK A01 T03380200  RH  047%=      5-min Rain = 0
KSE1 141900Z 06006G13KT 34/20 A3005 RMK A01 T03380202  RH  048%=      5-min Rain = 0
KSE1 141905Z 02009KT 34/20 A3004 RMK A01 T03420201  RH  046%=      5-min Rain = 0
KSE1 141910Z 05006G11KT 34/20 A3004 RMK A01 T03380201  RH  047%=      5-min Rain = 0
KSE1 141915Z 04008G14KT 34/20 A3004 RMK A01 T03430199  RH  046%=      5-min Rain = 0
KSE1 141920Z 07006G11KT 34/20 A3004 RMK A01 T03440200  RH  046%=      5-min Rain = 0
KSE1 141925Z 04006G11KT 34/20 A3004 RMK A01 T03440198  RH  045%=      5-min Rain = 0
KSE1 141930Z 06006KT 35/20 A3004 RMK A01 T03490198  RH  044%=      5-min Rain = 0
KSE1 141935Z 03008G15KT 34/20 A3004 RMK A01 T03440198  RH  045%=      5-min Rain = 0
KSE1 141940Z 06007G12KT 34/20 A3003 RMK A01 T03400199  RH  046%=      5-min Rain = 0
KSE1 141945Z 35012G18KT 35/20 A3003 RMK A01 T03510195  RH  043%=      5-min Rain = 0
KSE1 141950Z 01011G19KT 35/19 A3003 RMK A01 T03530194  RH  042%=      5-min Rain = 0
KSE1 141955Z 04011KT 35/19 A3003 RMK A01 T03460194  RH  043%=      5-min Rain = 0
KSE1 142000Z 05008KT 35/20 A3003 RMK A01 T03450197  RH  044%=      5-min Rain = 0
KSE1 142005Z 03008KT 35/20 A3002 RMK A01 T03480197  RH  044%=      5-min Rain = 0
KSE1 142010Z 04010G15KT 34/20 A3002 RMK A01 T03440195  RH  044%=      5-min Rain = 0
KSE1 142015Z 04009G15KT 35/20 A3002 RMK A01 T03490195  RH  043%=      5-min Rain = 0
KSE1 142020Z 05009G15KT 35/19 A3001 RMK A01 T03480194  RH  043%=      5-min Rain = 0
KSE1 142025Z 06006G11KT 35/20 A3001 RMK A01 T03480200  RH  045%=      5-min Rain = 0
KSE1 142030Z 06007KT 35/20 A3001 RMK A01 T03510199  RH  043%=      5-min Rain = 0
KSE1 142035Z 02010KT 35/20 A3001 RMK A01 T03540198  RH  043%=      5-min Rain = 0
KSE1 142040Z 02006KT 35/20 A30 RMK A01 T03520199  RH  043%=      5-min Rain = 0
KSE1 142045Z 05007KT 35/20 A30 RMK A01 T03480200  RH  045%=      5-min Rain = 0
KSE1 142050Z 07008KT 35/20 A30 RMK A01 T03530201  RH  044%=      5-min Rain = 0
KSE1 142055Z 05007G13KT 36/20 A2999 RMK A01 T03550200  RH  043%=      5-min Rain = 0
KSE1 142100Z 04009G14KT 35/20 A2999 RMK A01 T03530198  RH  042%=      5-min Rain = 0
KSE1 142105Z 04011G16KT 35/20 A2999 RMK A01 T03530196  RH  042%=      5-min Rain = 0
KSE1 142110Z 07006KT 35/20 A2999 RMK A01 T03470195  RH  043%=      5-min Rain = 0
KSE1 142115Z 03008KT 35/19 A2999 RMK A01 T03510193  RH  042%=      5-min Rain = 0
KSE1 142120Z 05008KT 36/20 A2998 RMK A01 T03550197  RH  042%=      5-min Rain = 0
KSE1 142125Z 06009G14KT 35/20 A2998 RMK A01 T03520196  RH  042%=      5-min Rain = 0
KSE1 142130Z 08010G17KT 35/19 A2998 RMK A01 T03530194  RH  042%=      5-min Rain = 0
KSE1 142135Z 04009KT 35/19 A2997 RMK A01 T03540191  RH  041%=      5-min Rain = 0
KSE1 142140Z 04011G16KT 36/19 A2997 RMK A01 T03550194  RH  041%=      5-min Rain = 0
KSE1 142145Z 06008KT 35/20 A2997 RMK A01 T03510196  RH  043%=      5-min Rain = 0
KSE1 142150Z 07007G13KT 35/20 A2997 RMK A01 T03500195  RH  043%=      5-min Rain = 0
KSE1 142155Z 05009G16KT 35/19 A2997 RMK A01 T03490186  RH  040%=      5-min Rain = 0
KSE1 142200Z 08008G14KT 35/19 A2997 RMK A01 T03470190  RH  042%=      5-min Rain = 0
KSE1 142205Z 05010KT 35/19 A2997 RMK A01 T03520189  RH  040%=      5-min Rain = 0
KSE1 142210Z 04008KT 35/19 A2997 RMK A01 T03530188  RH  040%=      5-min Rain = 0
KSE1 142215Z 07007KT 35/19 A2997 RMK A01 T03520190  RH  041%=      5-min Rain = 0
KSE1 142220Z 07007KT 35/19 A2997 RMK A01 T03480193  RH  043%=      5-min Rain = 0
KSE1 142225Z 07009G14KT 35/19 A2997 RMK A01 T03480192  RH  042%=      5-min Rain = 0
KSE1 142230Z 05007KT 35/19 A2997 RMK A01 T03500189  RH  041%=      5-min Rain = 0
KSE1 142235Z 07007G12KT 35/19 A2997 RMK A01 T03530190  RH  041%=      5-min Rain = 0
KSE1 142240Z 08008KT 35/19 A2997 RMK A01 T03510190  RH  041%=      5-min Rain = 0
KSE1 142245Z 06008KT 34/19 A2997 RMK A01 T03440185  RH  041%=      5-min Rain = 0
KSE1 142250Z 05007KT 34/18 A2997 RMK A01 T03430184  RH  041%=      5-min Rain = 0
KSE1 142255Z 07006G16KT 35/19 A2997 RMK A01 T03480188  RH  041%=      5-min Rain = 0
KSE1 142300Z 06008KT 35/19 A2997 RMK A01 T03480186  RH  041%=      5-min Rain = 0
KSE1 142305Z 05008KT 35/19 A2997 RMK A01 T03490186  RH  040%=      5-min Rain = 0
KSE1 142310Z 07005KT 35/18 A2997 RMK A01 T03470182  RH  040%=      5-min Rain = 0
KSE1 142315Z 04008G13KT 35/19 A2997 RMK A01 T03480185  RH  040%=      5-min Rain = 0
KSE1 142320Z 05008KT 35/19 A2997 RMK A01 T03470188  RH  041%=      5-min Rain = 0
KSE1 142325Z 05005KT 35/19 A2997 RMK A01 T03470188  RH  042%=      5-min Rain = 0
KSE1 142330Z 09007KT 35/19 A2997 RMK A01 T03460186  RH  041%=      5-min Rain = 0
KSE1 142335Z 07007G12KT 35/18 A2997 RMK A01 T03460183  RH  040%=      5-min Rain = 0
KSE1 142340Z 08007KT 34/18 A2997 RMK A01 T03440183  RH  041%=      5-min Rain = 0
KSE1 142345Z 06008KT 34/19 A2997 RMK A01 T03430185  RH  041%=      5-min Rain = 0
KSE1 142350Z 06007G12KT 34/18 A2997 RMK A01 T03410184  RH  042%=      5-min Rain = 0
KSE1 142355Z 08007KT 34/19 A2997 RMK A01 T03440185  RH  041%=      5-min Rain = 0
KSE1 150000Z 08006KT 34/19 A2997 RMK A01 T03420185  RH  042%=      5-min Rain = 0
KSE1 150005Z 07007KT 34/19 A2997 RMK A01 T03410185  RH  042%=      5-min Rain = 0
KSE1 150010Z 06006KT 34/19 A2997 RMK A01 T03400185  RH  042%=      5-min Rain = 0
KSE1 150015Z 05007KT 34/19 A2997 RMK A01 T03390186  RH  043%=      5-min Rain = 0
KSE1 150020Z 06006KT 34/19 A2997 RMK A01 T03380187  RH  043%=      5-min Rain = 0
KSE1 150025Z 06006KT 34/19 A2997 RMK A01 T03380186  RH  043%=      5-min Rain = 0
KSE1 150030Z 06006G11KT 34/19 A2997 RMK A01 T03370186  RH  043%=      5-min Rain = 0
KSE1 150035Z 06007KT 34/19 A2997 RMK A01 T03360185  RH  043%=      5-min Rain = 0
KSE1 150040Z 07005KT 34/19 A2998 RMK A01 T03350186  RH  044%=      5-min Rain = 0
KSE1 150045Z 08006KT 33/19 A2998 RMK A01 T03330188  RH  045%=      5-min Rain = 0
KSE1 150050Z 06005KT 33/19 A2998 RMK A01 T03320188  RH  045%=      5-min Rain = 0
KSE1 150055Z 05007KT 33/19 A2998 RMK A01 T03300189  RH  046%=      5-min Rain = 0
KSE1 150100Z 06008KT 33/19 A2998 RMK A01 T03290188  RH  046%=      5-min Rain = 0
KSE1 150105Z 06007KT 33/19 A2998 RMK A01 T03280188  RH  046%=      5-min Rain = 0
KSE1 150110Z 06005KT 33/19 A2998 RMK A01 T03260188  RH  047%=      5-min Rain = 0
KSE1 150115Z 07004KT 32/19 A2999 RMK A01 T03230188  RH  047%=      5-min Rain = 0
KSE1 150120Z 06004KT 32/19 A2999 RMK A01 T03210188  RH  048%=      5-min Rain = 0
KSE1 150125Z 07005KT 32/19 A2999 RMK A01 T03180190  RH  049%=      5-min Rain = 0
KSE1 150130Z 08005KT 32/19 A2999 RMK A01 T03180193  RH  050%=      5-min Rain = 0
KSE1 150135Z 07004KT 32/19 A2999 RMK A01 T03170193  RH  051%=      5-min Rain = 0
KSE1 150140Z 08004KT 32/19 A2999 RMK A01 T03150193  RH  051%=      5-min Rain = 0
KSE1 150145Z 08004KT 32/19 A30 RMK A01 T03150193  RH  051%=      5-min Rain = 0
KSE1 150150Z 08005KT 31/19 A30 RMK A01 T03130193  RH  052%=      5-min Rain = 0
KSE1 150155Z 08004KT 31/19 A30 RMK A01 T03120193  RH  052%=      5-min Rain = 0
KSE1 150200Z 09005KT 31/19 A30 RMK A01 T03100193  RH  053%=      5-min Rain = 0
KSE1 150205Z 08005KT 31/19 A3001 RMK A01 T03100193  RH  053%=      5-min Rain = 0
KSE1 150210Z 08005KT 31/19 A3001 RMK A01 T03090193  RH  053%=      5-min Rain = 0
KSE1 150215Z 08004KT 31/19 A3001 RMK A01 T03060194  RH  054%=      5-min Rain = 0
KSE1 150220Z 08005KT 30/19 A3002 RMK A01 T03040193  RH  055%=      5-min Rain = 0
KSE1 150225Z 09005KT 30/19 A3002 RMK A01 T03040193  RH  055%=      5-min Rain = 0
KSE1 150230Z 09005KT 30/19 A3002 RMK A01 T03020193  RH  055%=      5-min Rain = 0
KSE1 150235Z 08004KT 30/19 A3002 RMK A01 T03000193  RH  056%=      5-min Rain = 0
KSE1 150240Z 09005KT 30/19 A3003 RMK A01 T03000193  RH  056%=      5-min Rain = 0
KSE1 150245Z 09005KT 30/19 A3003 RMK A01 T02990193  RH  056%=      5-min Rain = 0
KSE1 150250Z 09006KT 30/19 A3003 RMK A01 T02980193  RH  056%=      5-min Rain = 0
KSE1 150255Z 09007KT 30/19 A3004 RMK A01 T02960193  RH  057%=      5-min Rain = 0
KSE1 150300Z 10007KT 29/19 A3004 RMK A01 T02940194  RH  058%=      5-min Rain = 0
KSE1 150305Z 10007KT 29/20 A3004 RMK A01 T02930195  RH  059%=      5-min Rain = 0
KSE1 150310Z 10007KT 29/20 A3004 RMK A01 T02930196  RH  059%=      5-min Rain = 0
KSE1 150315Z 10008KT 29/20 A3005 RMK A01 T02910196  RH  060%=      5-min Rain = 0
KSE1 150320Z 10007KT 29/20 A3005 RMK A01 T02900196  RH  060%=      5-min Rain = 0
KSE1 150325Z 10006KT 29/20 A3005 RMK A01 T02870195  RH  061%=      5-min Rain = 0
KSE1 150330Z 10006KT 28/20 A3005 RMK A01 T02840195  RH  062%=      5-min Rain = 0
KSE1 150335Z 10007KT 28/20 A3005 RMK A01 T02840196  RH  062%=      5-min Rain = 0
KSE1 150340Z 11007KT 28/20 A3005 RMK A01 T02840196  RH  062%=      5-min Rain = 0
KSE1 150345Z 11006KT 28/20 A3005 RMK A01 T02820196  RH  063%=      5-min Rain = 0
KSE1 150350Z 11006KT 28/20 A3005 RMK A01 T02800196  RH  064%=      5-min Rain = 0
KSE1 150355Z 11006KT 28/20 A3005 RMK A01 T02780195  RH  064%=      5-min Rain = 0
KSE1 150400Z 11007KT 28/20 A3006 RMK A01 T02760195  RH  065%=      5-min Rain = 0
KSE1 150405Z 11006KT 28/20 A3006 RMK A01 T02750195  RH  065%=      5-min Rain = 0
KSE1 150410Z 11007KT 28/20 A3006 RMK A01 T02760195  RH  065%=      5-min Rain = 0
KSE1 150415Z 10006KT 28/19 A3006 RMK A01 T02750194  RH  065%=      5-min Rain = 0
KSE1 150420Z 10007KT 27/20 A3006 RMK A01 T02740195  RH  066%=      5-min Rain = 0
KSE1 150425Z 11007KT 27/20 A3006 RMK A01 T02730196  RH  066%=      5-min Rain = 0
KSE1 150430Z 11007KT 27/20 A3006 RMK A01 T02730196  RH  066%=      5-min Rain = 0
KSE1 150435Z 11008KT 28/20 A3006 RMK A01 T02760196  RH  065%=      5-min Rain = 0
KSE1 150440Z 11008KT 28/20 A3006 RMK A01 T02770196  RH  065%=      5-min Rain = 0
KSE1 150445Z 11007KT 28/20 A3006 RMK A01 T02760197  RH  065%=      5-min Rain = 0
KSE1 150450Z 11007KT 28/20 A3006 RMK A01 T02760197  RH  065%=      5-min Rain = 0
KSE1 150455Z 11007KT 28/20 A3006 RMK A01 T02750197  RH  066%=      5-min Rain = 0

Page generated in 0.009 seconds.